Time;durP1;ratioP1;P1;durP2;ratioP2;P2;SDS_P1;SDS_P2;PMS_P1;PMS_P2;Temp;Humidity;BMP_temperature;BMP_pressure;BME280_temperature;BME280_humidity;BME280_pressure;Samples;Min_cycle;Max_cycle;Signal;HPM_P1;HPM_P2
2022/12/24 00:00:31;;;;;;;37.38;4.28;;;9.80;99.90;;;;;;5077179;28;20509;-79
2022/12/24 00:02:57;;;;;;;31.77;5.55;;;9.80;99.90;;;;;;5078166;28;20403;-79
2022/12/24 00:05:24;;;;;;;48.35;6.47;;;9.80;99.90;;;;;;5064876;28;20040;-79
2022/12/24 00:07:50;;;;;;;39.65;5.45;;;9.80;99.90;;;;;;5052668;28;20387;-77
2022/12/24 00:10:17;;;;;;;48.05;6.35;;;9.80;99.90;;;;;;5047948;28;20570;-78
2022/12/24 00:12:43;;;;;;;51.08;5.68;;;9.80;99.90;;;;;;5084430;28;20036;-79
2022/12/24 00:15:10;;;;;;;35.75;5.07;;;9.80;99.90;;;;;;5066644;28;20042;-79
2022/12/24 00:17:36;;;;;;;42.90;5.13;;;9.80;99.90;;;;;;5067328;28;20043;-79
2022/12/24 00:20:03;;;;;;;50.30;5.10;;;9.80;99.90;;;;;;5080997;28;20494;-78
2022/12/24 00:22:29;;;;;;;34.42;3.70;;;9.80;99.90;;;;;;5067379;28;20048;-78
2022/12/24 00:24:56;;;;;;;59.28;5.70;;;9.80;99.90;;;;;;5082491;28;20036;-78
2022/12/24 00:27:22;;;;;;;46.97;6.13;;;9.80;99.90;;;;;;5067140;28;20490;-78
2022/12/24 00:29:49;;;;;;;39.40;5.43;;;9.70;99.90;;;;;;5063955;28;20044;-78
2022/12/24 00:32:15;;;;;;;37.42;5.00;;;9.80;99.90;;;;;;5068663;28;20438;-78
2022/12/24 00:34:42;;;;;;;47.25;6.93;;;9.70;99.90;;;;;;5081839;28;20042;-80
2022/12/24 00:37:08;;;;;;;52.75;6.82;;;9.70;99.90;;;;;;5067120;28;20040;-79
2022/12/24 00:39:34;;;;;;;39.83;5.60;;;9.70;99.90;;;;;;5080462;28;20036;-78
2022/12/24 00:42:01;;;;;;;46.90;5.35;;;9.70;99.90;;;;;;5104121;28;20083;-78
2022/12/24 00:44:27;;;;;;;43.30;5.03;;;9.70;99.90;;;;;;5088231;28;20044;-78
2022/12/24 00:46:53;;;;;;;47.97;5.43;;;9.70;99.90;;;;;;5070410;28;20410;-78
2022/12/24 00:49:20;;;;;;;53.67;5.90;;;9.70;99.90;;;;;;5070224;28;20388;-78
2022/12/24 00:51:46;;;;;;;63.45;9.63;;;9.70;99.90;;;;;;5068205;28;20418;-79
2022/12/24 00:54:13;;;;;;;46.90;6.13;;;9.70;99.90;;;;;;5070381;28;20110;-79
2022/12/24 00:56:40;;;;;;;54.90;5.70;;;9.70;99.90;;;;;;5070786;28;20414;-78
2022/12/24 00:59:06;;;;;;;49.33;6.85;;;9.70;99.90;;;;;;5087344;28;20040;-79
2022/12/24 01:01:34;;;;;;;49.95;6.05;;;9.70;99.90;;;;;;5067499;28;20426;-78
2022/12/24 01:06:45;;;;;;;50.03;6.93;;;9.70;99.90;;;;;;5088679;28;20036;-78
2022/12/24 01:09:12;;;;;;;51.38;6.30;;;9.70;99.90;;;;;;5088159;28;20032;-78
2022/12/24 01:11:38;;;;;;;54.63;6.53;;;9.70;99.90;;;;;;5068981;28;20044;-78
2022/12/24 01:14:04;;;;;;;53.55;7.10;;;9.70;99.90;;;;;;5071553;28;20024;-78
2022/12/24 01:16:31;;;;;;;48.17;6.20;;;9.70;99.90;;;;;;5071548;28;20042;-78
2022/12/24 01:18:57;;;;;;;42.80;5.25;;;9.70;99.90;;;;;;5069644;28;20039;-78
2022/12/24 01:21:24;;;;;;;55.83;6.57;;;9.70;99.90;;;;;;5068450;28;20036;-78
2022/12/24 01:23:51;;;;;;;46.15;5.90;;;9.70;99.90;;;;;;5088675;28;20039;-78
2022/12/24 01:26:18;;;;;;;46.95;6.32;;;9.70;99.90;;;;;;5088527;28;20407;-78
2022/12/24 01:28:44;;;;;;;49.13;6.30;;;9.70;99.90;;;;;;5070933;28;20035;-78
2022/12/24 01:31:16;;;;;;;45.28;7.15;;;9.70;99.90;;;;;;5085734;28;20040;-78
2022/12/24 01:33:43;;;;;;;54.38;6.45;;;9.70;99.90;;;;;;5077062;28;20494;-78
2022/12/24 01:36:11;;;;;;;45.47;5.60;;;9.70;99.90;;;;;;5088272;28;20028;-77
2022/12/24 01:38:37;;;;;;;35.67;5.95;;;9.70;99.90;;;;;;5089206;28;20038;-78
2022/12/24 01:43:48;;;;;;;43.15;5.32;;;9.60;99.90;;;;;;5104817;28;20036;-78
2022/12/24 01:46:29;;;;;;;53.97;6.18;;;9.60;99.90;;;;;;5071093;28;20524;-78
2022/12/24 01:48:58;;;;;;;46.30;5.50;;;9.60;99.90;;;;;;5087568;28;20036;-78
2022/12/24 01:51:37;;;;;;;56.15;6.93;;;9.60;99.90;;;;;;5084600;28;20103;-79
2022/12/24 01:54:03;;;;;;;49.13;4.57;;;9.60;99.90;;;;;;5070925;28;20032;-78
2022/12/24 01:56:32;;;;;;;51.35;6.05;;;9.50;99.90;;;;;;5071101;28;20043;-79
2022/12/24 01:59:05;;;;;;;62.95;7.65;;;9.50;99.90;;;;;;5087577;28;20039;-79
2022/12/24 02:01:31;;;;;;;53.95;6.97;;;9.50;99.90;;;;;;5068328;28;20043;-78
2022/12/24 02:03:58;;;;;;;45.72;5.78;;;9.50;99.90;;;;;;5104787;28;20040;-78
2022/12/24 02:06:24;;;;;;;46.03;5.63;;;9.50;99.90;;;;;;5086311;28;20512;-78
2022/12/24 02:08:51;;;;;;;59.53;6.35;;;9.40;99.90;;;;;;5087140;28;20044;-78
2022/12/24 02:11:20;;;;;;;39.75;4.45;;;9.30;99.90;;;;;;5054837;28;20422;-79
2022/12/24 02:13:59;;;;;;;36.10;4.22;;;9.30;99.90;;;;;;5074118;28;20047;-78
2022/12/24 02:17:01;;;;;;;49.58;5.88;;;9.20;99.90;;;;;;5073484;28;20402;-78
2022/12/24 02:19:33;;;;;;;44.25;5.32;;;9.20;99.90;;;;;;5089602;28;20043;-78
2022/12/24 02:22:31;;;;;;;50.92;5.50;;;9.20;99.90;;;;;;5069594;28;20048;-79
2022/12/24 02:25:24;;;;;;;41.13;5.68;;;9.10;99.90;;;;;;5087398;28;20036;-79
2022/12/24 02:28:02;;;;;;;45.63;4.95;;;9.10;99.90;;;;;;5047628;28;20036;-79
2022/12/24 02:30:44;;;;;;;46.25;5.35;;;9.00;99.90;;;;;;5063654;28;20495;-79
2022/12/24 02:33:14;;;;;;;42.55;5.25;;;8.90;99.90;;;;;;5069910;28;20032;-79
2022/12/24 02:36:12;;;;;;;37.45;5.18;;;8.80;99.90;;;;;;5086989;28;20043;-78
2022/12/24 02:38:45;;;;;;;33.80;4.55;;;8.70;99.90;;;;;;5090166;28;20533;-79
2022/12/24 02:42:04;;;;;;;37.40;5.22;;;8.70;99.90;;;;;;5083939;28;20063;-78
2022/12/24 02:44:14;;;;;;;43.35;4.95;;;8.60;99.90;;;;;;5070016;28;20048;-79
2022/12/24 02:46:40;;;;;;;47.38;5.95;;;8.60;99.90;;;;;;5066286;28;20036;-79
2022/12/24 02:49:07;;;;;;;37.50;4.03;;;8.50;99.90;;;;;;5086176;28;20403;-79
2022/12/24 02:51:33;;;;;;;36.83;4.20;;;8.50;99.90;;;;;;5083569;28;20482;-79
2022/12/24 02:54:00;;;;;;;44.40;5.22;;;8.40;99.90;;;;;;5087042;28;20588;-79
2022/12/24 02:56:41;;;;;;;38.28;4.55;;;8.40;99.90;;;;;;5086647;28;20032;-79
2022/12/24 02:59:29;;;;;;;43.75;5.68;;;8.30;99.90;;;;;;5068724;28;20039;-79
2022/12/24 03:02:13;;;;;;;41.75;5.30;;;8.30;99.90;;;;;;5083703;28;20047;-79
2022/12/24 03:05:08;;;;;;;40.53;4.13;;;8.30;99.90;;;;;;5085789;28;20035;-79
2022/12/24 03:07:49;;;;;;;28.67;4.40;;;8.20;99.90;;;;;;5069308;28;20043;-79
2022/12/24 03:10:53;;;;;;;36.47;3.80;;;8.20;99.90;;;;;;5083183;28;20483;-79
2022/12/24 03:13:21;;;;;;;36.97;5.05;;;8.20;99.90;;;;;;5068221;28;20036;-79
2022/12/24 03:15:49;;;;;;;26.27;3.42;;;8.10;99.90;;;;;;5068454;28;20035;-80
2022/12/24 03:18:27;;;;;;;42.85;4.80;;;8.10;99.90;;;;;;5068492;28;20399;-79
2022/12/24 03:21:02;;;;;;;36.25;4.78;;;8.10;99.90;;;;;;5065884;28;20035;-79
2022/12/24 03:23:28;;;;;;;31.10;3.95;;;8.10;99.90;;;;;;5085744;28;20052;-79
2022/12/24 03:25:55;;;;;;;43.50;4.78;;;8.10;99.90;;;;;;5069382;28;20475;-79
2022/12/24 03:28:26;;;;;;;34.72;4.32;;;8.10;99.90;;;;;;5068770;28;20062;-79
2022/12/24 03:30:53;;;;;;;41.67;4.63;;;8.10;99.90;;;;;;5083642;28;20036;-79
2022/12/24 03:33:20;;;;;;;36.15;3.63;;;8.10;99.90;;;;;;5086180;28;20040;-79
2022/12/24 03:35:46;;;;;;;39.08;3.65;;;8.10;99.90;;;;;;5086381;28;20047;-79
2022/12/24 03:38:12;;;;;;;38.90;4.95;;;8.20;99.90;;;;;;5084840;28;20107;-79
2022/12/24 03:40:39;;;;;;;44.60;5.85;;;8.20;99.90;;;;;;5066064;28;20035;-79
2022/12/24 03:43:05;;;;;;;39.53;5.10;;;8.20;99.90;;;;;;5068366;28;20032;-80
2022/12/24 03:45:31;;;;;;;29.92;4.00;;;8.30;99.90;;;;;;5085976;28;20036;-79
2022/12/24 03:47:58;;;;;;;42.08;4.72;;;8.30;99.90;;;;;;5085303;28;20066;-80
2022/12/24 03:50:24;;;;;;;44.75;5.10;;;8.40;99.90;;;;;;5083126;28;20024;-79
2022/12/24 03:52:50;;;;;;;44.05;5.57;;;8.40;99.90;;;;;;5068372;28;20031;-80
2022/12/24 03:55:17;;;;;;;31.88;3.83;;;8.50;99.90;;;;;;5069152;28;20454;-79
2022/12/24 03:57:43;;;;;;;45.90;5.47;;;8.50;99.90;;;;;;5085703;28;20043;-79
2022/12/24 04:00:10;;;;;;;47.85;5.75;;;8.60;99.90;;;;;;5082559;28;20028;-79
2022/12/24 04:02:39;;;;;;;42.10;4.82;;;8.60;99.90;;;;;;5068254;28;20040;-79
2022/12/24 04:05:07;;;;;;;44.35;4.82;;;8.60;99.90;;;;;;5069047;28;20028;-79
2022/12/24 04:07:33;;;;;;;45.75;5.75;;;8.70;99.90;;;;;;5087220;28;20465;-79
2022/12/24 04:10:00;;;;;;;38.15;5.03;;;8.70;99.90;;;;;;5082310;28;20517;-79
2022/12/24 04:12:26;;;;;;;40.08;5.35;;;8.80;99.90;;;;;;5050520;28;20047;-79
2022/12/24 04:14:52;;;;;;;40.22;4.63;;;8.70;99.90;;;;;;5085243;28;20494;-79
2022/12/24 04:17:19;;;;;;;56.67;6.85;;;8.80;99.90;;;;;;5068423;28;20296;-79
2022/12/24 04:19:45;;;;;;;44.05;6.43;;;8.80;99.90;;;;;;5082542;28;20036;-79
2022/12/24 04:22:11;;;;;;;51.17;7.57;;;8.90;99.90;;;;;;5067255;28;20051;-79
2022/12/24 04:24:38;;;;;;;40.25;5.13;;;8.90;99.90;;;;;;5086908;28;20032;-79
2022/12/24 04:27:04;;;;;;;56.40;7.80;;;8.90;99.90;;;;;;5068565;28;20444;-79
2022/12/24 04:29:30;;;;;;;52.50;7.60;;;8.90;99.90;;;;;;5084398;28;20039;-79
2022/12/24 04:31:56;;;;;;;43.47;6.38;;;9.00;99.90;;;;;;5065655;28;20055;-79
2022/12/24 04:34:23;;;;;;;41.92;6.40;;;9.10;99.90;;;;;;5065097;28;20036;-79
2022/12/24 04:36:49;;;;;;;46.78;6.72;;;9.10;99.90;;;;;;5068419;28;20032;-79
2022/12/24 04:39:15;;;;;;;44.65;6.85;;;9.10;99.90;;;;;;5084355;28;20028;-79
2022/12/24 04:41:42;;;;;;;37.20;6.30;;;9.10;99.90;;;;;;5082644;28;20024;-78
2022/12/24 04:44:08;;;;;;;64.63;10.30;;;9.20;99.90;;;;;;5088956;28;20036;-79
2022/12/24 04:46:35;;;;;;;55.58;9.30;;;9.20;99.90;;;;;;5090434;28;20323;-79
2022/12/24 04:49:01;;;;;;;54.40;8.73;;;9.20;99.90;;;;;;5091112;28;20036;-79
2022/12/24 04:51:28;;;;;;;43.70;8.32;;;9.30;99.90;;;;;;5053093;28;20055;-80
2022/12/24 04:53:55;;;;;;;64.63;10.57;;;9.30;99.90;;;;;;5086151;28;20402;-79
2022/12/24 04:56:24;;;;;;;66.70;10.65;;;9.40;99.90;;;;;;5085603;28;20032;-79
2022/12/24 04:58:51;;;;;;;60.35;11.32;;;9.40;99.90;;;;;;5056213;28;20402;-79
2022/12/24 05:01:23;;;;;;;60.42;9.82;;;9.40;99.90;;;;;;5065490;28;20059;-79
2022/12/24 05:03:50;;;;;;;50.38;10.13;;;9.50;99.90;;;;;;5067004;28;20048;-79
2022/12/24 05:06:20;;;;;;;35.88;7.78;;;9.50;99.90;;;;;;5085245;28;20040;-79
2022/12/24 05:08:47;;;;;;;62.47;9.73;;;9.50;99.90;;;;;;5067244;28;20032;-79
2022/12/24 05:11:14;;;;;;;49.13;7.97;;;9.60;99.90;;;;;;5082160;28;20036;-79
2022/12/24 05:13:41;;;;;;;38.50;8.20;;;9.60;99.90;;;;;;5067436;28;20051;-79
2022/12/24 05:16:08;;;;;;;59.90;8.98;;;9.60;99.90;;;;;;5052341;28;20417;-79
2022/12/24 05:18:35;;;;;;;49.83;8.95;;;9.60;99.90;;;;;;5067026;28;20438;-79
2022/12/24 05:21:01;;;;;;;42.47;8.48;;;9.60;99.90;;;;;;5046706;28;20051;-79
2022/12/24 05:26:26;;;;;;;54.03;8.95;;;9.70;99.90;;;;;;5085173;28;20298;-79
2022/12/24 05:28:55;;;;;;;50.45;8.57;;;9.70;99.90;;;;;;5087687;28;20043;-79
2022/12/24 05:31:23;;;;;;;46.70;7.25;;;9.70;99.90;;;;;;5086978;28;20383;-79
2022/12/24 05:33:50;;;;;;;48.42;8.27;;;9.70;99.90;;;;;;5088698;28;20024;-79
2022/12/24 05:36:16;;;;;;;46.17;7.82;;;9.70;99.90;;;;;;5088192;28;20396;-79
2022/12/24 05:38:43;;;;;;;56.13;9.27;;;9.70;99.90;;;;;;5087724;28;20035;-79
2022/12/24 05:41:09;;;;;;;45.53;8.52;;;9.70;99.90;;;;;;5085469;28;20040;-80
2022/12/24 05:43:36;;;;;;;56.25;9.15;;;9.70;99.90;;;;;;5055741;28;20391;-80
2022/12/24 05:46:06;;;;;;;46.03;8.15;;;9.70;99.90;;;;;;5071255;28;20055;-80
2022/12/24 05:48:33;;;;;;;62.15;11.95;;;9.70;99.90;;;;;;5087335;28;20040;-80
2022/12/24 05:51:06;;;;;;;52.60;8.25;;;9.70;99.90;;;;;;5049966;28;20047;-80
2022/12/24 05:53:34;;;;;;;49.88;8.70;;;9.70;99.90;;;;;;5055688;28;20040;-80
2022/12/24 05:56:08;;;;;;;35.45;6.95;;;9.80;99.90;;;;;;5071010;28;20039;-80
2022/12/24 05:58:35;;;;;;;45.75;8.07;;;9.80;99.90;;;;;;5087768;28;20335;-80
2022/12/24 06:01:04;;;;;;;53.20;8.93;;;9.80;99.90;;;;;;5084587;28;20517;-81
2022/12/24 06:03:31;;;;;;;53.33;9.25;;;9.80;99.90;;;;;;5062928;28;20048;-80
2022/12/24 06:06:02;;;;;;;47.65;9.57;;;9.80;99.90;;;;;;5070806;28;20044;-79
2022/12/24 06:08:28;;;;;;;39.15;7.45;;;9.80;99.90;;;;;;5087318;28;20474;-79
2022/12/24 06:11:01;;;;;;;53.13;9.43;;;9.80;99.90;;;;;;5067252;28;20331;-79
2022/12/24 06:13:28;;;;;;;57.63;9.63;;;9.80;99.90;;;;;;5064867;28;20044;-79
2022/12/24 06:15:56;;;;;;;69.97;11.73;;;9.80;99.90;;;;;;5070890;28;20840;-79
2022/12/24 06:18:23;;;;;;;63.67;12.02;;;9.90;99.90;;;;;;5069960;28;20114;-79
2022/12/24 06:20:54;;;;;;;66.50;10.27;;;9.90;99.90;;;;;;5067222;28;20047;-79
2022/12/24 06:23:22;;;;;;;63.25;10.55;;;9.90;99.90;;;;;;5087247;28;20051;-79
2022/12/24 06:25:49;;;;;;;44.08;8.95;;;9.90;99.90;;;;;;5087264;28;20035;-79
2022/12/24 06:28:16;;;;;;;47.38;8.52;;;9.90;99.90;;;;;;5086886;28;20036;-79
2022/12/24 06:30:47;;;;;;;50.50;8.27;;;9.90;99.90;;;;;;5067188;28;20040;-79
2022/12/24 06:33:14;;;;;;;41.20;7.60;;;9.90;99.90;;;;;;5070391;28;20040;-79
2022/12/24 06:35:41;;;;;;;52.40;8.40;;;9.90;99.90;;;;;;5071232;28;20028;-79
2022/12/24 06:38:07;;;;;;;47.65;7.97;;;9.90;99.90;;;;;;5087589;28;20518;-79
2022/12/24 06:40:33;;;;;;;54.67;9.05;;;9.90;99.90;;;;;;5083629;28;20406;-78
2022/12/24 06:43:00;;;;;;;57.67;8.20;;;10.00;99.90;;;;;;5086802;28;20055;-79
2022/12/24 06:45:26;;;;;;;55.45;8.80;;;10.00;99.90;;;;;;5088351;28;20028;-78
2022/12/24 06:47:52;;;;;;;49.42;8.73;;;10.00;99.90;;;;;;5086455;28;20035;-78
2022/12/24 06:50:19;;;;;;;43.92;8.15;;;10.00;99.90;;;;;;5066257;28;20031;-80
2022/12/24 06:52:46;;;;;;;49.42;8.63;;;10.00;99.90;;;;;;5088408;28;20406;-78
2022/12/24 06:55:12;;;;;;;51.17;9.98;;;10.00;99.90;;;;;;5086807;28;20028;-79
2022/12/24 06:57:38;;;;;;;54.80;10.80;;;10.00;99.90;;;;;;5086419;28;20444;-78
2022/12/24 07:00:07;;;;;;;40.13;7.80;;;10.00;99.90;;;;;;5066564;28;21736;-79
2022/12/24 07:02:33;;;;;;;43.95;7.63;;;10.00;99.90;;;;;;5086639;28;20051;-78
2022/12/24 07:05:00;;;;;;;49.13;8.65;;;10.00;99.90;;;;;;5087760;28;20035;-79
2022/12/24 07:07:26;;;;;;;39.95;8.18;;;10.00;99.90;;;;;;5086381;28;20394;-79
2022/12/24 07:09:52;;;;;;;41.45;9.15;;;10.00;99.90;;;;;;5065570;28;20510;-79
2022/12/24 07:12:19;;;;;;;52.65;11.13;;;10.00;99.90;;;;;;5069469;28;20028;-79
2022/12/24 07:14:45;;;;;;;50.50;9.77;;;10.00;99.90;;;;;;5087520;28;20040;-79
2022/12/24 07:17:11;;;;;;;50.00;9.52;;;10.00;99.90;;;;;;5084544;28;20032;-79
2022/12/24 07:19:38;;;;;;;50.50;10.65;;;10.00;99.90;;;;;;5068881;28;20035;-79
2022/12/24 07:22:04;;;;;;;55.95;10.40;;;10.00;99.90;;;;;;5084809;28;20044;-78
2022/12/24 07:24:31;;;;;;;63.20;13.30;;;10.00;99.90;;;;;;5085088;28;20036;-78
2022/12/24 07:26:57;;;;;;;60.72;11.85;;;10.00;99.90;;;;;;5081656;28;20403;-79
2022/12/24 07:29:23;;;;;;;48.67;11.15;;;10.00;99.90;;;;;;5086591;28;20487;-79
2022/12/24 07:31:50;;;;;;;47.10;11.02;;;10.00;99.90;;;;;;5084533;28;20031;-78
2022/12/24 07:34:16;;;;;;;55.05;11.00;;;10.00;99.90;;;;;;5084155;28;20032;-78
2022/12/24 07:36:42;;;;;;;48.85;11.57;;;10.00;99.90;;;;;;5078125;28;20028;-77
2022/12/24 07:39:09;;;;;;;43.70;11.13;;;10.00;99.90;;;;;;5078979;28;20423;-78
2022/12/24 07:41:35;;;;;;;54.58;10.63;;;10.00;99.90;;;;;;5066237;28;20036;-78
2022/12/24 07:44:01;;;;;;;46.72;10.88;;;10.00;99.90;;;;;;5086636;28;20802;-78
2022/12/24 07:46:27;;;;;;;43.63;9.80;;;10.00;99.90;;;;;;5067971;28;20109;-78
2022/12/24 07:48:54;;;;;;;65.68;11.90;;;10.00;99.90;;;;;;5084830;28;20039;-77
2022/12/24 07:51:20;;;;;;;65.40;10.57;;;10.00;99.90;;;;;;5072968;28;20150;-78
2022/12/24 07:53:46;;;;;;;53.15;11.25;;;10.00;99.90;;;;;;5068935;28;20048;-78
2022/12/24 07:56:14;;;;;;;48.35;10.05;;;10.00;99.90;;;;;;5052107;28;20032;-78
2022/12/24 07:58:41;;;;;;;44.17;9.32;;;10.00;99.90;;;;;;5085387;28;20028;-78
2022/12/24 08:01:07;;;;;;;52.92;8.77;;;10.00;99.90;;;;;;5082828;28;20032;-78
2022/12/24 08:03:34;;;;;;;40.80;8.38;;;10.00;99.90;;;;;;5068486;28;20044;-78
2022/12/24 08:06:00;;;;;;;62.05;11.35;;;10.00;99.90;;;;;;5085285;28;20367;-78
2022/12/24 08:08:26;;;;;;;54.78;10.55;;;10.00;99.90;;;;;;5085062;28;20052;-77
2022/12/24 08:10:53;;;;;;;53.22;9.88;;;10.00;99.90;;;;;;5080596;28;20028;-78
2022/12/24 08:13:19;;;;;;;59.63;10.63;;;10.00;99.90;;;;;;5083481;28;20506;-78
2022/12/24 08:15:46;;;;;;;53.45;9.65;;;10.00;99.90;;;;;;5084844;28;20027;-78
2022/12/24 08:18:12;;;;;;;41.70;8.68;;;10.00;99.90;;;;;;5078687;28;20475;-78
2022/12/24 08:20:39;;;;;;;46.78;10.02;;;10.10;99.90;;;;;;5080640;28;20040;-78
2022/12/24 08:23:07;;;;;;;50.58;8.40;;;10.10;99.90;;;;;;5085012;28;20040;-77
2022/12/24 08:25:34;;;;;;;61.22;10.77;;;10.10;99.90;;;;;;5068499;28;20043;-78
2022/12/24 08:28:00;;;;;;;50.45;9.13;;;10.10;99.90;;;;;;5083705;28;20032;-78
2022/12/24 08:30:26;;;;;;;42.67;8.13;;;10.10;99.90;;;;;;5082176;28;20035;-77
2022/12/24 08:32:53;;;;;;;60.85;10.85;;;10.10;99.90;;;;;;5083676;28;20039;-79
2022/12/24 08:35:20;;;;;;;59.97;10.23;;;10.10;99.90;;;;;;5078188;28;20039;-78
2022/12/24 08:37:46;;;;;;;46.08;8.43;;;10.10;99.90;;;;;;5082815;28;20046;-78
2022/12/24 08:40:13;;;;;;;40.28;7.80;;;10.20;99.90;;;;;;5062175;28;20041;-78
2022/12/24 08:42:39;;;;;;;42.45;9.00;;;10.20;99.90;;;;;;5064998;28;20040;-79
2022/12/24 08:45:06;;;;;;;51.97;9.68;;;10.20;99.90;;;;;;5062194;28;20032;-78
2022/12/24 08:47:32;;;;;;;63.55;11.95;;;10.20;99.90;;;;;;5062800;28;20040;-77
2022/12/24 08:49:59;;;;;;;50.95;10.07;;;10.20;99.90;;;;;;5055922;28;20028;-78
2022/12/24 08:52:25;;;;;;;61.83;13.82;;;10.20;99.90;;;;;;5076752;28;20032;-77
2022/12/24 08:54:51;;;;;;;53.20;12.70;;;10.30;99.90;;;;;;5079281;28;20032;-78
2022/12/24 08:57:19;;;;;;;47.65;10.48;;;10.30;99.90;;;;;;5063822;28;20040;-78
2022/12/24 08:59:45;;;;;;;52.83;11.68;;;10.30;99.90;;;;;;5075693;28;20043;-77
2022/12/24 09:02:11;;;;;;;57.03;10.82;;;10.30;99.90;;;;;;5084188;28;20040;-77
2022/12/24 09:04:39;;;;;;;66.93;12.70;;;10.30;99.90;;;;;;5048617;28;20040;-78
2022/12/24 09:07:06;;;;;;;46.80;10.80;;;10.40;99.90;;;;;;5076405;28;20028;-75
2022/12/24 09:09:33;;;;;;;55.30;10.85;;;10.40;99.90;;;;;;5085893;28;20036;-77
2022/12/24 09:11:59;;;;;;;59.90;11.77;;;10.40;99.90;;;;;;5079871;28;20414;-77
2022/12/24 09:14:26;;;;;;;71.53;12.50;;;10.40;99.90;;;;;;5084249;28;20587;-77
2022/12/24 09:16:52;;;;;;;57.90;11.15;;;10.40;99.90;;;;;;5069078;28;20031;-77
2022/12/24 09:19:19;;;;;;;54.03;11.30;;;10.40;99.90;;;;;;5070333;28;20028;-77
2022/12/24 09:21:45;;;;;;;45.90;11.80;;;10.40;99.90;;;;;;5062857;28;20055;-77
2022/12/24 09:24:11;;;;;;;54.75;10.85;;;10.40;99.90;;;;;;5085517;28;20510;-77
2022/12/24 09:26:40;;;;;;;57.55;12.38;;;10.50;99.90;;;;;;5067261;28;20387;-76
2022/12/24 09:29:08;;;;;;;69.00;14.32;;;10.50;99.90;;;;;;5084942;28;20456;-77
2022/12/24 09:31:35;;;;;;;43.70;10.48;;;10.50;99.90;;;;;;5079967;28;20397;-77
2022/12/24 09:34:02;;;;;;;45.17;10.02;;;10.50;99.90;;;;;;5080203;28;20615;-77
2022/12/24 09:36:28;;;;;;;50.05;10.10;;;10.50;99.90;;;;;;5082024;28;20031;-77
2022/12/24 09:38:54;;;;;;;50.83;12.20;;;10.50;99.90;;;;;;5089105;28;20478;-77
2022/12/24 09:41:44;;;;;;;49.78;11.90;;;10.50;99.90;;;;;;5067778;28;20036;-76
2022/12/24 09:44:48;;;;;;;39.55;10.00;;;10.50;99.90;;;;;;5077120;28;20043;-77
2022/12/24 09:47:30;;;;;;;58.83;11.77;;;10.50;99.90;;;;;;5066656;28;20521;-77
2022/12/24 09:50:01;;;;;;;67.18;15.85;;;10.50;99.90;;;;;;5084543;28;20035;-76
2022/12/24 09:52:41;;;;;;;49.67;12.05;;;10.50;99.90;;;;;;5088018;28;20202;-77
2022/12/24 09:55:11;;;;;;;65.85;15.30;;;10.50;99.90;;;;;;5071346;28;20040;-76
2022/12/24 09:57:40;;;;;;;54.50;12.20;;;10.50;99.90;;;;;;5104795;28;20035;-77
2022/12/24 10:00:36;;;;;;;36.22;9.32;;;10.50;99.90;;;;;;5050017;28;20226;-76
2022/12/24 10:03:14;;;;;;;41.63;10.48;;;10.50;99.90;;;;;;5087885;28;20048;-77
2022/12/24 10:06:00;;;;;;;50.75;12.02;;;10.50;99.90;;;;;;5070860;28;20036;-77
2022/12/24 10:08:45;;;;;;;49.65;11.63;;;10.50;99.90;;;;;;5073676;28;20055;-77
2022/12/24 10:11:24;;;;;;;51.65;11.55;;;10.60;99.90;;;;;;5065196;28;20029;-76
2022/12/24 10:14:20;;;;;;;56.17;10.38;;;10.60;99.90;;;;;;5084283;28;20028;-77
2022/12/24 10:17:01;;;;;;;55.83;10.20;;;10.60;99.90;;;;;;5084455;28;20722;-77
2022/12/24 10:19:55;;;;;;;45.60;9.63;;;10.70;99.90;;;;;;5067392;28;20040;-76
2022/12/24 10:22:30;;;;;;;51.85;10.07;;;10.80;99.90;;;;;;5062488;28;20422;-76
2022/12/24 10:25:22;;;;;;;41.65;9.48;;;10.70;99.90;;;;;;5077810;28;20052;-77
2022/12/24 10:27:52;;;;;;;59.83;11.02;;;10.80;99.90;;;;;;5078046;28;20090;-76
2022/12/24 10:30:21;;;;;;;46.20;10.02;;;10.80;99.90;;;;;;5060113;28;20044;-76
2022/12/24 10:32:50;;;;;;;45.72;10.05;;;10.80;99.90;;;;;;5082015;28;20506;-77
2022/12/24 10:35:19;;;;;;;40.63;9.20;;;10.80;99.90;;;;;;5065341;28;20040;-76
2022/12/24 10:37:49;;;;;;;53.95;9.40;;;10.80;99.90;;;;;;5067195;28;20040;-76
2022/12/24 10:40:26;;;;;;;53.30;10.98;;;10.80;99.90;;;;;;5060574;28;20040;-76
2022/12/24 10:42:52;;;;;;;48.33;11.05;;;10.90;99.90;;;;;;5050446;28;20044;-77
2022/12/24 10:45:25;;;;;;;39.13;8.52;;;11.00;99.90;;;;;;5064343;28;20059;-80
2022/12/24 10:47:59;;;;;;;46.13;10.10;;;11.00;99.90;;;;;;5065232;28;20039;-80
2022/12/24 10:50:41;;;;;;;38.63;8.80;;;11.10;99.90;;;;;;5057426;28;20059;-79
2022/12/24 10:53:22;;;;;;;41.60;11.30;;;11.10;99.90;;;;;;5075964;28;20114;-81
2022/12/24 10:55:48;;;;;;;51.17;10.80;;;11.20;99.90;;;;;;5066173;28;20039;-77
2022/12/24 10:58:18;;;;;;;42.15;8.82;;;11.20;99.90;;;;;;5083139;28;20036;-76
2022/12/24 11:00:54;;;;;;;41.42;9.40;;;11.20;99.90;;;;;;5059333;28;20043;-77
2022/12/24 11:03:22;;;;;;;54.03;10.02;;;11.20;99.90;;;;;;5067203;28;20044;-77
2022/12/24 11:05:59;;;;;;;35.60;7.47;;;11.10;99.90;;;;;;5084871;28;20035;-77
2022/12/24 11:08:26;;;;;;;29.80;6.60;;;11.10;99.90;;;;;;5064448;28;20043;-77
2022/12/24 11:11:00;;;;;;;39.97;6.97;;;11.10;99.90;;;;;;5090515;27;20047;-77
2022/12/24 11:13:29;;;;;;;33.63;6.45;;;11.00;99.90;;;;;;5080605;28;20040;-77
2022/12/24 11:16:01;;;;;;;35.92;6.85;;;11.10;99.90;;;;;;5082018;28;20040;-77
2022/12/24 11:18:27;;;;;;;42.92;9.60;;;11.10;99.90;;;;;;5055828;28;20298;-76
2022/12/24 11:20:58;;;;;;;39.03;7.68;;;11.10;99.90;;;;;;5077524;28;20044;-77
2022/12/24 11:23:24;;;;;;;46.10;8.32;;;11.10;99.90;;;;;;5083033;28;20573;-77
2022/12/24 11:25:51;;;;;;;34.10;9.68;;;11.10;99.90;;;;;;5066201;28;20501;-76
2022/12/24 11:28:36;;;;;;;37.28;7.22;;;11.10;99.90;;;;;;5065843;28;20032;-76
2022/12/24 11:31:18;;;;;;;46.97;9.48;;;11.10;99.90;;;;;;5064586;28;20032;-76
2022/12/24 11:33:50;;;;;;;34.72;7.30;;;11.00;99.90;;;;;;5065878;28;20039;-77
2022/12/24 11:36:22;;;;;;;36.20;6.35;;;11.00;99.90;;;;;;5064497;28;20035;-76
2022/12/24 11:38:56;;;;;;;41.63;7.13;;;10.90;99.90;;;;;;5064070;28;20039;-76
2022/12/24 11:41:24;;;;;;;42.10;9.05;;;10.90;99.90;;;;;;5062769;28;20023;-76
2022/12/24 11:44:02;;;;;;;38.15;7.18;;;10.80;99.90;;;;;;5066070;28;20035;-76
2022/12/24 11:46:38;;;;;;;40.35;6.30;;;10.80;99.90;;;;;;5065633;28;20109;-76
2022/12/24 11:49:26;;;;;;;32.85;5.50;;;10.80;99.90;;;;;;5081123;28;20490;-76
2022/12/24 11:52:22;;;;;;;37.00;5.72;;;10.80;99.90;;;;;;5065718;28;20035;-76
2022/12/24 11:54:51;;;;;;;28.88;5.00;;;10.90;99.90;;;;;;5064711;28;20047;-80
2022/12/24 11:57:21;;;;;;;37.88;5.72;;;10.90;99.90;;;;;;5064417;28;20940;-79
2022/12/24 11:59:49;;;;;;;32.95;5.53;;;10.90;99.90;;;;;;5060805;28;20028;-76
2022/12/24 12:02:22;;;;;;;32.97;6.18;;;10.90;99.90;;;;;;5062025;28;20032;-76
2022/12/24 12:04:59;;;;;;;29.20;5.28;;;10.90;99.90;;;;;;5075234;28;20044;-76
2022/12/24 12:07:35;;;;;;;38.50;5.30;;;11.00;99.90;;;;;;5088707;28;20051;-76
2022/12/24 12:10:10;;;;;;;33.45;5.60;;;11.10;99.90;;;;;;5096598;28;20110;-76
2022/12/24 12:12:41;;;;;;;36.05;6.68;;;11.20;99.90;;;;;;5065691;28;20032;-76
2022/12/24 12:15:28;;;;;;;26.52;6.18;;;11.30;99.90;;;;;;5096786;28;20044;-76
2022/12/24 12:18:04;;;;;;;30.98;5.60;;;11.40;99.90;;;;;;5078984;28;20039;-77
2022/12/24 12:20:34;;;;;;;32.55;6.75;;;11.40;99.90;;;;;;5054958;28;20450;-77
2022/12/24 12:23:10;;;;;;;30.55;5.75;;;11.40;99.90;;;;;;5063908;28;20059;-77
2022/12/24 12:25:57;;;;;;;24.80;4.07;;;11.40;99.90;;;;;;5060991;28;20047;-77
2022/12/24 12:28:24;;;;;;;40.22;7.28;;;11.40;99.90;;;;;;5063233;28;20028;-77
2022/12/24 12:31:22;;;;;;;39.15;5.80;;;11.30;99.90;;;;;;5074278;28;20028;-76
2022/12/24 12:33:56;;;;;;;42.75;6.28;;;11.30;99.90;;;;;;5071544;28;20055;-77
2022/12/24 12:36:30;;;;;;;35.35;5.35;;;11.30;99.90;;;;;;5087830;28;20032;-76
2022/12/24 12:38:56;;;;;;;36.88;5.93;;;11.30;99.90;;;;;;5080919;28;20039;-77
2022/12/24 12:41:56;;;;;;;37.15;5.93;;;11.20;99.90;;;;;;5084426;28;20036;-79
2022/12/24 12:44:35;;;;;;;35.53;5.50;;;11.10;99.90;;;;;;5085487;28;21063;-77
2022/12/24 12:47:13;;;;;;;31.25;4.95;;;11.00;99.90;;;;;;5072592;28;20032;-77
2022/12/24 12:50:24;;;;;;;30.10;4.50;;;11.00;99.90;;;;;;5087307;28;20032;-77
2022/12/24 12:53:04;;;;;;;30.63;4.53;;;10.90;99.90;;;;;;5088605;28;20024;-77
2022/12/24 12:55:33;;;;;;;28.55;4.82;;;10.90;99.90;;;;;;5089151;28;20051;-77
2022/12/24 12:58:03;;;;;;;32.45;6.07;;;10.90;99.90;;;;;;5071854;28;20032;-77
2022/12/24 13:00:36;;;;;;;24.75;3.72;;;11.00;99.90;;;;;;5081428;28;20040;-77
2022/12/24 13:03:19;;;;;;;24.88;4.90;;;11.00;99.90;;;;;;5054074;28;20039;-78